Time;durP1;ratioP1;P1;durP2;ratioP2;P2;SDS_P1;SDS_P2;PMS_P1;PMS_P2;Temp;Humidity;BMP_temperature;BMP_pressure;BME280_temperature;BME280_humidity;BME280_pressure;Samples;Min_cycle;Max_cycle;Signal;HPM_P1;HPM_P2
2022/01/14 00:01:41;;;;;;;66.88;28.75;;;3.90;99.90;;;;;;4994594;28;20042;-88
2022/01/14 00:04:07;;;;;;;66.68;28.30;;;3.90;99.90;;;;;;4995542;28;20033;-88
2022/01/14 00:06:33;;;;;;;72.82;29.20;;;3.80;99.90;;;;;;4994590;28;20065;-87
2022/01/14 00:09:06;;;;;;;65.15;27.58;;;3.80;99.90;;;;;;4977923;28;20041;-88
2022/01/14 00:11:32;;;;;;;;;;;3.70;99.90;;;;;;4994200;28;20404;-88
2022/01/14 00:16:30;;;;;;;72.97;28.90;;;3.70;99.90;;;;;;4995860;28;20042;-90
2022/01/14 00:18:57;;;;;;;68.63;30.33;;;3.70;99.90;;;;;;5010124;28;20042;-87
2022/01/14 00:21:24;;;;;;;65.00;28.83;;;3.80;99.90;;;;;;4994116;28;20026;-88
2022/01/14 00:23:52;;;;;;;73.45;29.75;;;3.70;99.90;;;;;;4993837;28;20030;-88
2022/01/14 00:31:56;;;;;;;67.03;29.70;;;3.70;99.90;;;;;;4995807;28;20133;-88
2022/01/14 00:34:22;;;;;;;68.55;30.13;;;3.70;99.90;;;;;;4998419;28;20038;-89
2022/01/14 00:36:47;;;;;;;73.05;29.20;;;3.70;99.90;;;;;;4997652;28;20057;-88
2022/01/14 00:39:14;;;;;;;65.68;29.17;;;3.80;99.90;;;;;;4997783;28;20038;-89
2022/01/14 00:41:41;;;;;;;68.50;29.05;;;3.70;99.90;;;;;;4997621;28;20023;-88
2022/01/14 00:44:11;;;;;;;74.13;30.00;;;3.70;99.90;;;;;;4997556;28;20035;-90
2022/01/14 00:46:38;;;;;;;80.75;31.45;;;3.80;99.90;;;;;;4997248;28;20030;-89
2022/01/14 00:49:04;;;;;;;66.22;29.08;;;3.80;99.90;;;;;;4997062;28;20129;-88
2022/01/14 00:51:29;;;;;;;62.90;27.75;;;3.80;99.90;;;;;;4997079;28;20123;-88
2022/01/14 00:53:55;;;;;;;66.75;27.65;;;3.80;99.90;;;;;;4998695;28;20114;-88
2022/01/14 00:56:30;;;;;;;69.90;30.23;;;3.80;99.90;;;;;;4999910;28;20081;-87
2022/01/14 00:59:14;;;;;;;74.85;30.45;;;3.90;99.90;;;;;;5000918;28;20044;-89
2022/01/14 01:01:48;;;;;;;78.13;32.30;;;3.80;99.90;;;;;;5000686;28;20064;-88
2022/01/14 01:04:17;;;;;;;72.47;31.75;;;3.80;99.90;;;;;;5000610;28;20120;-87
2022/01/14 01:06:43;;;;;;;66.97;29.27;;;3.80;99.90;;;;;;5000211;28;20041;-88
2022/01/14 01:09:11;;;;;;;76.72;30.67;;;3.80;99.90;;;;;;5000045;28;20040;-88
2022/01/14 01:11:43;;;;;;;77.13;31.80;;;3.80;99.90;;;;;;5018016;28;20052;-88
2022/01/14 01:14:16;;;;;;;80.35;32.55;;;3.80;99.90;;;;;;5000168;28;20034;-88
2022/01/14 01:16:42;;;;;;;;;;;3.90;99.90;;;;;;5000875;28;20037;-88
2022/01/14 01:19:08;;;;;;;80.00;30.92;;;3.80;99.90;;;;;;5000443;28;19909;-89
2022/01/14 01:21:34;;;;;;;78.20;31.42;;;3.80;99.90;;;;;;5000116;28;20084;-90
2022/01/14 01:24:00;;;;;;;70.38;30.20;;;3.80;99.90;;;;;;5000072;28;20404;-89
2022/01/14 01:26:31;;;;;;;77.32;32.88;;;3.90;99.90;;;;;;4999735;28;20029;-89
2022/01/14 01:31:41;;;;;;;80.30;33.30;;;3.80;99.90;;;;;;5017947;28;20037;-90
2022/01/14 01:34:19;;;;;;;85.38;32.35;;;3.80;99.90;;;;;;5000344;28;20057;-90
2022/01/14 01:36:47;;;;;;;73.05;30.60;;;3.80;99.90;;;;;;5017216;28;20026;-89
2022/01/14 01:39:16;;;;;;;73.95;31.08;;;3.80;99.90;;;;;;5017067;28;20038;-88
2022/01/14 01:41:44;;;;;;;68.63;28.88;;;3.80;99.90;;;;;;4999897;28;20058;-90
2022/01/14 01:44:12;;;;;;;93.80;34.42;;;3.80;99.90;;;;;;4999130;28;20116;-90
2022/01/14 01:46:40;;;;;;;74.15;31.00;;;3.80;99.90;;;;;;5016515;28;20030;-90
2022/01/14 01:49:08;;;;;;;74.88;31.27;;;3.80;99.90;;;;;;4999891;28;20084;-90
2022/01/14 01:51:35;;;;;;;81.88;33.17;;;3.80;99.90;;;;;;4999931;28;20389;-90
2022/01/14 01:54:00;;;;;;;69.57;29.42;;;3.80;99.90;;;;;;5001756;28;20046;-90
2022/01/14 01:56:26;;;;;;;72.72;30.80;;;3.80;99.90;;;;;;5000011;28;20073;-90
2022/01/14 01:58:52;;;;;;;74.18;30.92;;;3.90;99.90;;;;;;4999631;28;20040;-90
2022/01/14 02:01:18;;;;;;;77.80;31.08;;;3.90;99.90;;;;;;4999684;28;20066;-88
2022/01/14 02:03:44;;;;;;;67.82;27.77;;;3.80;99.90;;;;;;5017237;28;20038;-89
2022/01/14 02:06:10;;;;;;;65.40;28.60;;;3.90;99.90;;;;;;4999299;28;20037;-89
2022/01/14 02:08:35;;;;;;;81.00;31.35;;;3.90;99.90;;;;;;4999515;28;20395;-88
2022/01/14 02:11:02;;;;;;;75.22;31.95;;;3.90;99.90;;;;;;4999306;28;20037;-88
2022/01/14 02:13:30;;;;;;;74.38;31.48;;;3.90;99.90;;;;;;5015321;28;20618;-88
2022/01/14 02:23:54;;;;;;;85.45;33.05;;;3.80;99.90;;;;;;5016877;28;20079;-88
2022/01/14 02:26:21;;;;;;;77.70;31.98;;;3.70;99.90;;;;;;4999131;28;20034;-88
2022/01/14 02:28:48;;;;;;;69.88;30.00;;;3.70;99.90;;;;;;5016490;28;20034;-88
2022/01/14 02:31:15;;;;;;;72.43;31.40;;;3.70;99.90;;;;;;5000025;28;20029;-88
2022/01/14 02:33:41;;;;;;;82.30;31.70;;;3.70;99.90;;;;;;5015603;28;20124;-88
2022/01/14 02:36:07;;;;;;;76.50;31.95;;;3.70;99.90;;;;;;5015789;28;20468;-88
2022/01/14 02:38:33;;;;;;;77.93;31.80;;;3.70;99.90;;;;;;5016178;28;20038;-86
2022/01/14 02:40:58;;;;;;;75.88;32.25;;;3.70;99.90;;;;;;5016476;28;20037;-88
2022/01/14 02:43:26;;;;;;;73.55;31.40;;;3.70;99.90;;;;;;4998983;28;20119;-88
2022/01/14 02:45:54;;;;;;;84.63;33.55;;;3.70;99.90;;;;;;5016655;28;20080;-89
2022/01/14 02:48:30;;;;;;;79.43;33.92;;;3.70;99.90;;;;;;5015337;28;20522;-88
2022/01/14 02:55:59;;;;;;;69.40;31.75;;;3.60;99.90;;;;;;5016262;28;20034;-87
2022/01/14 02:58:27;;;;;;;64.38;31.15;;;3.60;99.90;;;;;;5015142;28;20062;-89
2022/01/14 03:00:53;;;;;;;67.60;28.63;;;3.60;99.90;;;;;;5015173;28;20094;-89
2022/01/14 03:03:23;;;;;;;64.32;27.73;;;3.60;99.90;;;;;;5016190;28;20026;-89
2022/01/14 03:05:51;;;;;;;60.05;25.45;;;3.60;99.90;;;;;;5018521;28;20464;-88
2022/01/14 03:08:19;;;;;;;70.03;28.08;;;3.60;99.90;;;;;;5004034;28;20022;-89
2022/01/14 03:10:52;;;;;;;63.50;27.45;;;3.70;99.90;;;;;;5020057;28;20034;-87
2022/01/14 03:13:18;;;;;;;66.63;28.48;;;3.70;99.90;;;;;;5001814;28;20093;-88
2022/01/14 03:15:44;;;;;;;73.90;29.83;;;3.70;99.90;;;;;;5014835;28;20014;-88
2022/01/14 03:18:10;;;;;;;69.82;29.63;;;3.70;99.90;;;;;;5022419;28;20034;-87
2022/01/14 03:23:08;;;;;;;58.90;25.67;;;3.60;99.90;;;;;;5038834;28;20097;-87
2022/01/14 03:25:51;;;;;;;56.35;25.77;;;3.60;99.90;;;;;;5021248;28;20021;-86
2022/01/14 03:28:22;;;;;;;66.93;29.63;;;3.70;99.90;;;;;;5011131;28;20065;-88
2022/01/14 03:30:50;;;;;;;83.05;31.48;;;3.60;99.90;;;;;;5036499;28;20010;-88
2022/01/14 03:33:16;;;;;;;66.20;30.05;;;3.60;99.90;;;;;;5037618;28;20033;-90
2022/01/14 03:35:41;;;;;;;72.13;32.22;;;3.60;99.90;;;;;;5021020;28;20036;-91
2022/01/14 03:38:07;;;;;;;70.25;30.55;;;3.50;99.90;;;;;;5008701;28;20038;-88
2022/01/14 03:40:32;;;;;;;66.97;27.95;;;3.60;99.90;;;;;;5017161;28;20034;-89
2022/01/14 03:42:58;;;;;;;72.13;30.05;;;3.60;99.90;;;;;;4999302;28;20034;-90
2022/01/14 03:45:24;;;;;;;71.47;29.27;;;3.60;99.90;;;;;;4998388;28;20120;-89
2022/01/14 03:47:49;;;;;;;68.90;29.75;;;3.60;99.90;;;;;;4998237;28;20050;-90
2022/01/14 03:50:15;;;;;;;75.72;31.02;;;3.60;99.90;;;;;;5015320;28;20030;-88
2022/01/14 03:52:41;;;;;;;65.20;30.73;;;3.60;99.90;;;;;;4998407;28;20065;-89
2022/01/14 03:55:07;;;;;;;79.20;32.95;;;3.60;99.90;;;;;;4998556;28;20030;-89
2022/01/14 03:57:32;;;;;;;75.13;32.13;;;3.60;99.90;;;;;;4997976;28;20380;-89
2022/01/14 03:59:58;;;;;;;79.55;34.92;;;3.60;99.90;;;;;;4998889;28;20041;-88
2022/01/14 04:02:23;;;;;;;79.10;33.65;;;3.50;99.90;;;;;;4998249;28;20040;-90
2022/01/14 04:04:49;;;;;;;75.13;32.90;;;3.60;99.90;;;;;;4998111;28;20547;-87
2022/01/14 04:07:15;;;;;;;73.93;32.33;;;3.50;99.90;;;;;;4997440;28;20029;-89
2022/01/14 04:09:41;;;;;;;68.53;30.63;;;3.50;99.90;;;;;;4998083;28;20038;-88
2022/01/14 04:12:09;;;;;;;78.07;31.33;;;3.50;99.90;;;;;;5015478;28;20480;-89
2022/01/14 04:17:04;;;;;;;85.18;34.83;;;3.60;99.90;;;;;;5015470;28;20500;-89
2022/01/14 04:19:30;;;;;;;76.68;31.70;;;3.50;99.90;;;;;;4997588;28;20106;-88
2022/01/14 04:21:56;;;;;;;79.55;31.13;;;3.50;99.90;;;;;;4997544;28;20092;-89
2022/01/14 04:24:22;;;;;;;76.60;33.55;;;3.50;99.90;;;;;;4997430;28;20034;-87
2022/01/14 04:26:47;;;;;;;73.07;30.42;;;3.50;99.90;;;;;;4997289;28;20029;-89
2022/01/14 04:29:14;;;;;;;69.63;30.58;;;3.50;99.90;;;;;;4997374;28;20121;-88
2022/01/14 04:31:40;;;;;;;75.97;32.28;;;3.60;99.90;;;;;;4997140;28;20248;-89
2022/01/14 04:34:06;;;;;;;69.82;31.48;;;3.50;99.90;;;;;;5014837;28;20034;-90
2022/01/14 04:36:33;;;;;;;81.43;32.13;;;3.50;99.90;;;;;;4997012;28;20088;-89
2022/01/14 04:38:59;;;;;;;71.03;29.80;;;3.50;99.90;;;;;;4997306;28;20121;-87
2022/01/14 04:41:25;;;;;;;71.15;29.08;;;3.50;99.90;;;;;;4997602;28;20042;-89
2022/01/14 04:43:50;;;;;;;69.60;29.98;;;3.60;99.90;;;;;;4997586;28;20046;-90
2022/01/14 04:48:56;;;;;;;101.90;33.47;;;3.60;99.90;;;;;;5016323;28;20037;-89
2022/01/14 04:51:21;;;;;;;71.05;29.95;;;3.60;99.90;;;;;;4996765;28;20054;-89
2022/01/14 04:53:48;;;;;;;69.28;29.52;;;3.60;99.90;;;;;;4996819;28;20135;-88
2022/01/14 04:56:14;;;;;;;108.32;34.33;;;3.60;99.90;;;;;;4997269;28;20033;-89
2022/01/14 04:58:40;;;;;;;90.40;35.85;;;3.60;99.90;;;;;;5013662;28;20122;-89
2022/01/14 05:01:05;;;;;;;79.68;33.17;;;3.60;99.90;;;;;;5014256;28;20085;-89
2022/01/14 05:03:31;;;;;;;78.43;32.90;;;3.60;99.90;;;;;;5013736;28;20033;-87
2022/01/14 05:05:59;;;;;;;69.65;31.17;;;3.50;99.90;;;;;;5014396;28;20089;-87
2022/01/14 05:08:35;;;;;;;71.85;29.65;;;3.50;99.90;;;;;;4996631;28;20026;-86
2022/01/14 05:11:14;;;;;;;83.55;32.15;;;3.60;99.90;;;;;;5012796;28;20040;-88
2022/01/14 05:13:40;;;;;;;72.30;31.05;;;3.60;99.90;;;;;;4996419;28;20463;-88
2022/01/14 05:16:06;;;;;;;70.68;30.70;;;3.60;99.90;;;;;;5013299;28;20104;-87
2022/01/14 05:18:31;;;;;;;76.30;30.48;;;3.60;99.90;;;;;;4997454;28;20034;-89
2022/01/14 05:20:57;;;;;;;76.03;32.15;;;3.60;99.90;;;;;;5001247;28;20027;-89
2022/01/14 05:23:24;;;;;;;80.28;33.40;;;3.60;99.90;;;;;;5007738;28;20045;-87
2022/01/14 05:25:49;;;;;;;71.82;30.88;;;3.60;99.90;;;;;;5005834;28;20030;-87
2022/01/14 05:28:16;;;;;;;69.05;29.42;;;3.60;99.90;;;;;;5005768;28;20506;-87
2022/01/14 05:30:42;;;;;;;62.28;27.83;;;3.60;99.90;;;;;;5004922;28;20026;-86
2022/01/14 05:33:07;;;;;;;61.45;27.00;;;3.60;99.90;;;;;;5006202;28;20085;-87
2022/01/14 05:35:33;;;;;;;60.33;25.48;;;3.60;99.90;;;;;;5004553;28;20030;-85
2022/01/14 05:37:59;;;;;;;57.90;24.77;;;3.60;99.90;;;;;;5017159;28;20037;-88
2022/01/14 05:40:27;;;;;;;64.68;25.52;;;3.70;99.90;;;;;;4999741;28;20022;-87
2022/01/14 05:42:53;;;;;;;59.05;26.05;;;3.70;99.90;;;;;;5000033;28;20041;-87
2022/01/14 05:45:18;;;;;;;58.78;26.67;;;3.70;99.90;;;;;;4999701;28;20029;-87
2022/01/14 05:47:45;;;;;;;71.60;28.70;;;3.70;99.90;;;;;;4999724;28;20128;-87
2022/01/14 05:50:14;;;;;;;65.68;28.40;;;3.70;99.90;;;;;;5016733;28;20041;-87
2022/01/14 05:52:40;;;;;;;55.53;25.30;;;3.70;99.90;;;;;;4999140;28;20562;-88
2022/01/14 05:55:07;;;;;;;50.85;22.85;;;3.70;99.90;;;;;;5015504;28;20027;-88
2022/01/14 05:57:34;;;;;;;51.92;22.45;;;3.80;99.90;;;;;;5016641;28;20500;-88
2022/01/14 06:00:01;;;;;;;55.75;22.83;;;3.80;99.90;;;;;;5017111;28;20067;-86
2022/01/14 06:02:27;;;;;;;63.05;27.30;;;3.80;99.90;;;;;;4999520;28;20038;-88
2022/01/14 06:04:53;;;;;;;63.00;27.20;;;3.90;99.90;;;;;;4999375;28;20022;-87
2022/01/14 06:07:18;;;;;;;68.28;26.90;;;3.80;99.90;;;;;;5023903;28;20037;-85
2022/01/14 06:09:44;;;;;;;61.22;25.90;;;3.80;99.90;;;;;;5022316;28;20469;-86
2022/01/14 06:12:10;;;;;;;68.05;28.13;;;3.80;99.90;;;;;;5022603;28;20050;-87
2022/01/14 06:14:36;;;;;;;64.95;29.17;;;3.80;99.90;;;;;;5020409;28;20037;-88
2022/01/14 06:17:01;;;;;;;68.25;28.55;;;3.70;99.90;;;;;;5019849;28;20037;-86
2022/01/14 06:19:28;;;;;;;61.83;26.15;;;3.80;99.90;;;;;;5000545;28;20543;-87
2022/01/14 06:21:53;;;;;;;59.30;27.88;;;3.70;99.90;;;;;;4999786;28;20029;-87
2022/01/14 06:24:19;;;;;;;57.05;25.27;;;3.80;99.90;;;;;;4999536;28;20034;-86
2022/01/14 06:26:45;;;;;;;55.65;24.80;;;3.70;99.90;;;;;;4998698;28;20041;-87
2022/01/14 06:29:10;;;;;;;56.08;25.55;;;3.80;99.90;;;;;;4999129;28;20052;-87
2022/01/14 06:31:36;;;;;;;69.13;28.52;;;3.80;99.90;;;;;;4998248;28;20034;-88
2022/01/14 06:34:02;;;;;;;66.90;28.98;;;3.80;99.90;;;;;;4999021;28;20030;-87
2022/01/14 06:36:27;;;;;;;53.30;25.98;;;3.80;99.90;;;;;;4998723;28;20121;-88
2022/01/14 06:38:53;;;;;;;47.60;22.55;;;3.70;99.90;;;;;;4998691;28;20377;-87
2022/01/14 06:41:19;;;;;;;61.55;24.63;;;3.90;99.90;;;;;;4998543;28;20030;-86
2022/01/14 06:43:44;;;;;;;55.25;25.27;;;3.80;99.90;;;;;;4998686;28;20491;-87
2022/01/14 06:46:10;;;;;;;47.95;24.27;;;3.80;99.90;;;;;;4998967;28;20041;-89
2022/01/14 06:48:36;;;;;;;53.95;22.98;;;3.80;99.90;;;;;;5000309;28;20495;-87
2022/01/14 06:51:01;;;;;;;52.80;24.92;;;3.80;99.90;;;;;;5003844;28;20030;-86
2022/01/14 06:53:27;;;;;;;54.20;24.48;;;3.80;99.90;;;;;;5025151;28;20058;-88
2022/01/14 06:55:52;;;;;;;59.67;25.98;;;3.80;99.90;;;;;;4999409;28;20113;-87
2022/01/14 06:58:18;;;;;;;57.03;24.80;;;3.80;99.90;;;;;;4998304;28;20082;-89
2022/01/14 07:00:44;;;;;;;59.20;26.58;;;3.80;99.90;;;;;;4998895;28;20121;-87
2022/01/14 07:03:09;;;;;;;56.70;28.25;;;3.80;99.90;;;;;;4998297;28;20385;-88
2022/01/14 07:05:35;;;;;;;77.80;27.50;;;3.80;99.90;;;;;;4998742;28;20045;-88
2022/01/14 07:08:01;;;;;;;56.13;26.35;;;3.80;99.90;;;;;;4998499;28;20072;-89
2022/01/14 07:10:26;;;;;;;57.35;25.67;;;3.70;99.90;;;;;;4998846;28;20053;-90
2022/01/14 07:12:52;;;;;;;59.15;26.73;;;3.70;99.90;;;;;;4999116;28;20407;-89
2022/01/14 07:15:18;;;;;;;71.25;30.17;;;3.70;99.90;;;;;;4998735;28;20030;-88
2022/01/14 07:17:44;;;;;;;60.50;27.55;;;3.70;99.90;;;;;;5002632;28;20030;-88
2022/01/14 07:20:13;;;;;;;60.47;27.83;;;3.70;99.90;;;;;;4999005;28;20061;-87
2022/01/14 07:22:40;;;;;;;57.83;27.98;;;3.70;99.90;;;;;;5004368;28;20042;-86
2022/01/14 07:25:07;;;;;;;61.13;27.85;;;3.70;99.90;;;;;;5021192;28;20057;-88
2022/01/14 07:27:32;;;;;;;58.97;27.75;;;3.70;99.90;;;;;;4999432;28;20030;-87
2022/01/14 07:29:59;;;;;;;58.10;27.75;;;3.70;99.90;;;;;;4998417;28;20045;-87
2022/01/14 07:32:25;;;;;;;57.70;28.30;;;3.60;99.90;;;;;;4999161;28;20053;-87
2022/01/14 07:34:51;;;;;;;57.83;27.88;;;3.60;99.90;;;;;;5016513;28;20415;-85
2022/01/14 07:37:18;;;;;;;57.08;27.00;;;3.60;99.90;;;;;;4998195;28;20472;-87
2022/01/14 07:39:44;;;;;;;55.60;25.35;;;3.60;99.90;;;;;;4999252;28;20034;-86
2022/01/14 07:42:10;;;;;;;55.85;26.55;;;3.70;99.90;;;;;;5012248;28;20125;-88
2022/01/14 07:44:35;;;;;;;63.55;28.10;;;3.60;99.90;;;;;;4997587;28;20121;-86
2022/01/14 07:47:01;;;;;;;54.97;26.25;;;3.60;99.90;;;;;;4996623;28;20030;-86
2022/01/14 07:49:27;;;;;;;58.65;25.02;;;3.60;99.90;;;;;;5013194;28;20121;-89
2022/01/14 07:51:53;;;;;;;57.88;26.50;;;3.60;99.90;;;;;;4996002;28;20195;-86
2022/01/14 07:54:18;;;;;;;59.13;25.65;;;3.70;99.90;;;;;;5013771;28;20049;-88
2022/01/14 07:56:50;;;;;;;67.97;26.35;;;3.70;99.90;;;;;;4996573;28;20447;-91
2022/01/14 07:59:18;;;;;;;53.17;26.75;;;3.70;99.90;;;;;;4996960;28;20061;-89
2022/01/14 08:01:46;;;;;;;56.83;27.02;;;3.70;99.90;;;;;;4997186;28;20396;-87
2022/01/14 08:04:17;;;;;;;76.35;28.50;;;3.70;99.90;;;;;;5013934;28;20042;-87
2022/01/14 08:06:48;;;;;;;56.17;24.98;;;3.70;99.90;;;;;;4996850;28;20042;-86
2022/01/14 08:09:16;;;;;;;58.00;27.92;;;3.70;99.90;;;;;;4996298;28;20124;-88
2022/01/14 08:11:43;;;;;;;61.65;26.70;;;3.70;99.90;;;;;;4996483;28;20034;-89
2022/01/14 08:14:09;;;;;;;58.22;26.58;;;3.70;99.90;;;;;;4991435;28;20030;-88
2022/01/14 08:16:34;;;;;;;71.47;28.67;;;3.70;99.90;;;;;;5012792;28;20109;-88
2022/01/14 08:19:01;;;;;;;60.90;26.60;;;3.70;99.90;;;;;;5003965;28;20101;-88
2022/01/14 08:21:27;;;;;;;55.70;25.42;;;3.70;99.90;;;;;;4996074;28;20492;-88
2022/01/14 08:23:52;;;;;;;47.17;22.63;;;3.70;99.90;;;;;;4983015;28;20030;-86
2022/01/14 08:26:18;;;;;;;55.72;25.85;;;3.80;99.90;;;;;;4990628;28;20030;-87
2022/01/14 08:28:44;;;;;;;57.85;25.55;;;3.80;99.90;;;;;;4993107;28;20045;-86
2022/01/14 08:31:10;;;;;;;63.15;25.38;;;3.80;99.90;;;;;;5009577;28;20707;-88
2022/01/14 08:33:35;;;;;;;57.60;26.13;;;3.80;99.90;;;;;;5011543;28;20095;-86
2022/01/14 08:36:02;;;;;;;58.60;26.55;;;3.80;99.90;;;;;;5011666;28;20119;-88
2022/01/14 08:38:28;;;;;;;52.25;24.45;;;3.80;99.90;;;;;;4977647;28;20500;-88
2022/01/14 08:40:55;;;;;;;53.45;23.02;;;3.80;99.90;;;;;;5011332;28;20164;-88
2022/01/14 08:43:20;;;;;;;50.65;20.80;;;3.80;99.90;;;;;;4994194;28;20124;-88
2022/01/14 08:45:46;;;;;;;51.88;23.42;;;3.90;99.90;;;;;;5013758;28;20058;-88
2022/01/14 08:48:12;;;;;;;54.92;24.73;;;3.90;99.90;;;;;;5012163;28;20037;-87
2022/01/14 08:50:38;;;;;;;42.85;21.00;;;3.90;99.90;;;;;;4995736;28;20034;-86
2022/01/14 08:53:07;;;;;;;48.15;22.98;;;3.90;99.90;;;;;;5012303;28;20129;-88
2022/01/14 08:55:34;;;;;;;52.00;22.70;;;3.90;99.90;;;;;;5001043;28;20483;-90
2022/01/14 08:58:00;;;;;;;49.00;23.58;;;3.90;99.90;;;;;;5017113;28;20061;-90
2022/01/14 09:00:26;;;;;;;53.97;24.17;;;4.00;99.90;;;;;;5017551;28;20034;-92
2022/01/14 09:02:52;;;;;;;50.60;23.70;;;4.00;99.90;;;;;;5000767;28;20085;-90
2022/01/14 09:05:19;;;;;;;50.83;22.58;;;4.00;99.90;;;;;;5000557;28;20034;-89
2022/01/14 09:07:45;;;;;;;43.15;20.42;;;4.00;99.90;;;;;;5017880;28;20088;-88
2022/01/14 09:10:11;;;;;;;48.72;22.50;;;4.00;99.90;;;;;;5000989;28;20427;-88
2022/01/14 09:12:36;;;;;;;55.30;24.83;;;4.10;99.90;;;;;;5016712;28;20041;-87
2022/01/14 09:15:04;;;;;;;49.65;24.58;;;4.10;99.90;;;;;;5015962;28;20490;-88
2022/01/14 09:17:30;;;;;;;49.00;22.58;;;4.10;99.90;;;;;;5016480;28;20122;-87
2022/01/14 09:19:56;;;;;;;48.67;22.00;;;4.10;99.90;;;;;;4990693;28;20476;-87
2022/01/14 09:22:24;;;;;;;52.05;24.17;;;4.10;99.90;;;;;;5006680;28;20084;-88
2022/01/14 09:24:50;;;;;;;49.95;24.85;;;4.10;99.90;;;;;;4997948;28;20032;-87
2022/01/14 09:27:16;;;;;;;50.60;22.17;;;4.10;99.90;;;;;;4996771;28;20034;-87
2022/01/14 09:29:49;;;;;;;42.90;21.38;;;4.10;99.90;;;;;;4981288;28;20034;-87
2022/01/14 09:32:15;;;;;;;50.60;23.17;;;4.10;99.90;;;;;;4983180;28;20517;-90
2022/01/14 09:34:40;;;;;;;54.78;24.23;;;4.20;99.90;;;;;;4997651;28;20038;-88
2022/01/14 09:37:06;;;;;;;47.75;22.70;;;4.10;99.90;;;;;;4998169;28;20034;-89
2022/01/14 09:39:33;;;;;;;46.20;22.05;;;4.20;99.90;;;;;;4979593;28;20026;-88
2022/01/14 09:41:59;;;;;;;50.97;23.40;;;4.20;99.90;;;;;;4982135;28;20026;-89
2022/01/14 09:44:25;;;;;;;50.83;23.83;;;4.20;99.90;;;;;;4984036;28;20492;-89
2022/01/14 09:46:51;;;;;;;52.75;25.20;;;4.20;99.90;;;;;;4987329;28;20045;-89
2022/01/14 09:49:18;;;;;;;50.20;23.60;;;4.20;99.90;;;;;;4983970;28;20045;-91
2022/01/14 09:51:43;;;;;;;56.97;25.63;;;4.20;99.90;;;;;;4988548;28;20060;-91
2022/01/14 09:54:10;;;;;;;47.05;23.45;;;4.20;99.90;;;;;;4971027;28;20050;-90
2022/01/14 09:56:37;;;;;;;47.28;21.23;;;4.30;99.90;;;;;;4986525;28;20055;-89
2022/01/14 09:59:04;;;;;;;55.58;24.02;;;4.30;99.90;;;;;;4992395;28;20038;-91
2022/01/14 10:01:41;;;;;;;51.45;24.83;;;4.30;99.90;;;;;;4984111;28;20562;-91
2022/01/14 10:04:12;;;;;;;51.28;21.83;;;4.30;99.90;;;;;;4980640;28;20056;-91
2022/01/14 10:06:53;;;;;;;46.05;20.65;;;4.30;99.90;;;;;;4980053;28;20026;-88
2022/01/14 10:09:30;;;;;;;53.50;23.90;;;4.30;99.90;;;;;;4998463;28;20513;-91
2022/01/14 10:12:08;;;;;;;46.30;21.73;;;4.30;99.90;;;;;;4981103;28;20088;-92
2022/01/14 10:14:39;;;;;;;49.72;21.25;;;4.30;99.90;;;;;;4981175;28;20038;-91
2022/01/14 10:17:08;;;;;;;48.97;21.35;;;4.40;99.90;;;;;;4980356;28;20044;-91
2022/01/14 10:19:36;;;;;;;42.47;20.52;;;4.40;99.90;;;;;;4980516;28;20069;-92
2022/01/14 10:22:18;;;;;;;49.28;23.45;;;4.40;99.90;;;;;;4979968;28;20073;-90
2022/01/14 10:24:53;;;;;;;49.67;21.48;;;4.40;99.90;;;;;;4980866;28;20035;-92
2022/01/14 10:27:29;;;;;;;45.45;21.52;;;4.40;99.90;;;;;;4980235;28;20026;-92
2022/01/14 10:30:08;;;;;;;54.35;25.10;;;4.40;99.90;;;;;;4981297;28;20381;-92
2022/01/14 10:32:36;;;;;;;58.03;27.02;;;4.50;99.90;;;;;;4997441;28;20038;-89
2022/01/14 10:35:11;;;;;;;53.80;25.65;;;4.50;99.90;;;;;;4980574;28;20061;-88
2022/01/14 10:37:36;;;;;;;52.60;26.35;;;4.40;99.90;;;;;;4982753;28;20038;-89
2022/01/14 10:40:11;;;;;;;51.38;25.67;;;4.40;99.90;;;;;;4980976;28;20140;-90
2022/01/14 10:42:37;;;;;;;50.00;23.92;;;4.40;99.90;;;;;;4963314;28;20072;-90
2022/01/14 10:45:30;;;;;;;58.15;27.05;;;4.50;99.90;;;;;;4979671;28;20045;-89
2022/01/14 10:48:22;;;;;;;53.67;23.15;;;4.50;99.90;;;;;;4979429;28;20031;-89
2022/01/14 10:50:59;;;;;;;46.53;22.77;;;4.50;99.90;;;;;;4998214;28;20038;-89
2022/01/14 10:53:53;;;;;;;44.95;21.38;;;4.50;99.90;;;;;;5013383;28;20130;-89
2022/01/14 10:56:22;;;;;;;56.13;25.48;;;4.60;99.90;;;;;;4999751;28;20045;-89
2022/01/14 10:58:50;;;;;;;57.08;26.40;;;4.60;99.90;;;;;;5000718;28;20053;-91
2022/01/14 11:01:20;;;;;;;50.97;26.20;;;4.60;99.90;;;;;;5001855;28;20111;-92
2022/01/14 11:03:47;;;;;;;57.92;25.25;;;4.60;99.90;;;;;;5019878;28;20044;-90
2022/01/14 11:06:38;;;;;;;58.60;28.63;;;4.60;99.90;;;;;;5019136;28;20041;-90
2022/01/14 11:09:12;;;;;;;60.53;28.80;;;4.60;99.90;;;;;;5018380;28;20064;-89
2022/01/14 11:11:40;;;;;;;58.72;27.15;;;4.60;99.90;;;;;;5010955;28;20100;-94
2022/01/14 11:14:07;;;;;;;55.50;28.20;;;4.60;99.90;;;;;;5010233;28;20042;-91
2022/01/14 11:16:34;;;;;;;60.40;28.77;;;4.60;99.90;;;;;;5009138;28;20030;-92
2022/01/14 11:19:02;;;;;;;53.88;27.77;;;4.60;99.90;;;;;;5010928;28;20026;-93
2022/01/14 11:24:14;;;;;;;50.90;25.33;;;4.60;99.90;;;;;;5032456;28;20561;-90
2022/01/14 11:26:43;;;;;;;51.03;25.13;;;4.60;99.90;;;;;;5009226;28;20037;-84
2022/01/14 11:29:17;;;;;;;50.95;24.90;;;4.60;99.90;;;;;;5016476;28;20034;-86
2022/01/14 11:31:43;;;;;;;50.30;25.48;;;4.70;99.90;;;;;;5034615;28;20042;-91
2022/01/14 11:34:54;;;;;;;50.35;23.83;;;4.70;99.90;;;;;;5020537;28;20034;-91
2022/01/14 11:37:29;;;;;;;53.63;25.63;;;4.70;99.90;;;;;;5015873;28;20064;-87
2022/01/14 11:39:57;;;;;;;50.88;24.33;;;4.70;99.90;;;;;;5038606;28;20019;-88
2022/01/14 11:42:46;;;;;;;59.05;27.02;;;4.70;99.90;;;;;;5038607;28;20022;-90
2022/01/14 11:45:13;;;;;;;62.60;30.33;;;4.70;99.90;;;;;;5019984;28;20038;-89
2022/01/14 11:47:41;;;;;;;59.13;27.92;;;4.70;99.90;;;;;;5019598;28;20030;-89
2022/01/14 11:50:29;;;;;;;51.38;26.33;;;4.70;99.90;;;;;;5018598;28;20042;-88
2022/01/14 11:52:58;;;;;;;53.90;25.42;;;4.70;99.90;;;;;;5018022;28;20105;-88
2022/01/14 11:55:34;;;;;;;56.70;27.30;;;4.70;99.90;;;;;;5018075;28;20037;-90
2022/01/14 11:58:09;;;;;;;57.83;29.05;;;4.80;99.90;;;;;;5033279;28;20038;-93
2022/01/14 12:00:39;;;;;;;53.83;27.73;;;4.70;99.90;;;;;;5027128;28;20048;-90
2022/01/14 12:03:07;;;;;;;51.30;27.60;;;4.70;99.90;;;;;;5005832;28;20026;-91
2022/01/14 12:05:36;;;;;;;53.35;27.77;;;4.70;99.90;;;;;;5018149;28;20034;-89
2022/01/14 12:08:04;;;;;;;54.13;26.60;;;4.80;99.90;;;;;;4990485;28;20109;-88
2022/01/14 12:10:34;;;;;;;54.13;27.27;;;4.80;99.90;;;;;;4992188;28;20129;-90
2022/01/14 12:13:22;;;;;;;58.53;27.50;;;4.80;99.90;;;;;;4998873;28;20061;-90
2022/01/14 12:16:06;;;;;;;51.40;25.05;;;4.80;99.90;;;;;;5007794;28;20057;-88
2022/01/14 12:18:57;;;;;;;71.78;31.70;;;4.80;99.90;;;;;;4985031;28;20464;-88
2022/01/14 12:21:40;;;;;;;57.60;27.70;;;4.90;99.90;;;;;;4998081;28;20076;-91
2022/01/14 12:24:18;;;;;;;;;;;4.80;99.90;;;;;;4979075;28;20040;-91
2022/01/14 12:27:03;;;;;;;64.15;29.90;;;4.90;99.90;;;;;;5009396;28;20139;-91
2022/01/14 12:29:51;;;;;;;61.72;29.13;;;4.80;99.90;;;;;;5019430;28;20040;-90
2022/01/14 12:32:30;;;;;;;61.72;30.70;;;4.90;99.90;;;;;;4994370;28;20061;-85
2022/01/14 12:34:56;;;;;;;56.45;28.95;;;4.90;99.90;;;;;;4990871;28;20097;-85
2022/01/14 12:38:00;;;;;;;52.65;26.00;;;4.90;99.90;;;;;;5010103;28;20487;-86
2022/01/14 12:40:40;;;;;;;55.85;26.20;;;5.00;99.90;;;;;;5010079;28;20033;-85
2022/01/14 12:43:11;;;;;;;50.90;23.63;;;5.00;99.90;;;;;;4989791;28;20545;-84
2022/01/14 12:46:13;;;;;;;51.40;25.90;;;5.10;99.90;;;;;;4994451;28;20037;-84
2022/01/14 12:48:46;;;;;;;45.88;22.88;;;5.10;99.90;;;;;;4993098;28;20026;-82
2022/01/14 12:51:15;;;;;;;62.40;29.48;;;5.10;99.90;;;;;;4987810;28;20034;-86
2022/01/14 12:54:01;;;;;;;54.38;26.90;;;5.10;99.90;;;;;;5009155;28;20376;-87
2022/01/14 12:56:31;;;;;;;54.78;26.48;;;5.00;99.90;;;;;;5011588;28;20042;-84
2022/01/14 12:58:58;;;;;;;61.20;29.08;;;5.10;99.90;;;;;;4995793;28;20419;-86
2022/01/14 13:01:33;;;;;;;55.25;26.45;;;5.10;99.90;;;;;;4994370;28;20504;-86
2022/01/14 13:04:04;;;;;;;54.00;26.20;;;5.10;99.90;;;;;;5012196;28;20052;-86
2022/01/14 13:06:56;;;;;;;55.25;27.90;;;5.10;99.90;;;;;;4991868;28;20097;-85
2022/01/14 13:09:28;;;;;;;54.10;27.48;;;5.10;99.90;;;;;;4993915;28;20045;-86
2022/01/14 13:12:03;;;;;;;53.93;27.13;;;5.20;99.90;;;;;;4995752;28;20038;-86
2022/01/14 13:14:34;;;;;;;51.25;26.83;;;5.20;99.90;;;;;;4997346;28;20045;-87
2022/01/14 13:17:03;;;;;;;50.63;26.65;;;5.20;99.90;;;;;;5006535;28;20030;-87
2022/01/14 13:19:32;;;;;;;43.85;24.88;;;5.10;99.90;;;;;;5009475;28;20104;-85
2022/01/14 13:22:00;;;;;;;44.92;24.95;;;5.10;99.90;;;;;;5024738;28;20038;-87